sensor_id;sensor_type;location;lat;lon;timestamp;P1;durP1;ratioP1;P2;durP2;ratioP2
84133;SDS011;74235;48.688;9.708;2024-02-23T00:00:18;0.80;;;0.38;;
84133;SDS011;74235;48.688;9.708;2024-02-23T00:05:13;0.50;;;0.50;;
84133;SDS011;74235;48.688;9.708;2024-02-23T00:10:10;0.30;;;0.30;;
84133;SDS011;74235;48.688;9.708;2024-02-23T00:12:37;0.22;;;0.22;;
84133;SDS011;74235;48.688;9.708;2024-02-23T00:15:05;0.30;;;0.30;;
84133;SDS011;74235;48.688;9.708;2024-02-23T00:17:34;0.40;;;0.40;;
84133;SDS011;74235;48.688;9.708;2024-02-23T00:20:02;0.28;;;0.28;;
84133;SDS011;74235;48.688;9.708;2024-02-23T00:22:32;0.35;;;0.35;;
84133;SDS011;74235;48.688;9.708;2024-02-23T00:25:02;0.30;;;0.30;;
84133;SDS011;74235;48.688;9.708;2024-02-23T00:27:31;0.45;;;0.45;;
84133;SDS011;74235;48.688;9.708;2024-02-23T00:29:58;0.40;;;0.40;;
84133;SDS011;74235;48.688;9.708;2024-02-23T00:32:26;0.30;;;0.30;;
84133;SDS011;74235;48.688;9.708;2024-02-23T00:34:54;0.30;;;0.30;;
84133;SDS011;74235;48.688;9.708;2024-02-23T00:37:23;0.22;;;0.22;;
84133;SDS011;74235;48.688;9.708;2024-02-23T00:42:19;0.35;;;0.35;;
84133;SDS011;74235;48.688;9.708;2024-02-23T00:44:48;0.25;;;0.25;;
84133;SDS011;74235;48.688;9.708;2024-02-23T00:47:15;0.35;;;0.35;;
84133;SDS011;74235;48.688;9.708;2024-02-23T00:49:43;0.32;;;0.32;;
84133;SDS011;74235;48.688;9.708;2024-02-23T00:54:38;0.40;;;0.40;;
84133;SDS011;74235;48.688;9.708;2024-02-23T00:57:06;0.22;;;0.22;;
84133;SDS011;74235;48.688;9.708;2024-02-23T01:02:02;0.30;;;0.30;;
84133;SDS011;74235;48.688;9.708;2024-02-23T01:04:30;0.35;;;0.35;;
84133;SDS011;74235;48.688;9.708;2024-02-23T01:09:25;0.25;;;0.25;;
84133;SDS011;74235;48.688;9.708;2024-02-23T01:14:20;0.30;;;0.30;;
84133;SDS011;74235;48.688;9.708;2024-02-23T01:16:50;0.25;;;0.25;;
84133;SDS011;74235;48.688;9.708;2024-02-23T01:19:17;0.43;;;0.43;;
84133;SDS011;74235;48.688;9.708;2024-02-23T01:21:46;0.20;;;0.20;;
84133;SDS011;74235;48.688;9.708;2024-02-23T01:26:41;0.52;;;0.52;;
84133;SDS011;74235;48.688;9.708;2024-02-23T01:29:09;0.30;;;0.30;;
84133;SDS011;74235;48.688;9.708;2024-02-23T01:31:37;0.40;;;0.40;;
84133;SDS011;74235;48.688;9.708;2024-02-23T01:34:06;0.22;;;0.22;;
84133;SDS011;74235;48.688;9.708;2024-02-23T01:36:34;0.40;;;0.40;;
84133;SDS011;74235;48.688;9.708;2024-02-23T01:39:03;0.20;;;0.20;;
84133;SDS011;74235;48.688;9.708;2024-02-23T01:43:59;0.40;;;0.40;;
84133;SDS011;74235;48.688;9.708;2024-02-23T01:46:27;0.32;;;0.32;;
84133;SDS011;74235;48.688;9.708;2024-02-23T01:48:55;0.40;;;0.40;;
84133;SDS011;74235;48.688;9.708;2024-02-23T01:51:25;0.20;;;0.20;;
84133;SDS011;74235;48.688;9.708;2024-02-23T01:53:53;0.20;;;0.20;;
84133;SDS011;74235;48.688;9.708;2024-02-23T01:56:21;0.40;;;0.40;;
84133;SDS011;74235;48.688;9.708;2024-02-23T01:58:49;0.35;;;0.35;;
84133;SDS011;74235;48.688;9.708;2024-02-23T02:01:17;0.40;;;0.40;;
84133;SDS011;74235;48.688;9.708;2024-02-23T02:03:46;0.50;;;0.50;;
84133;SDS011;74235;48.688;9.708;2024-02-23T02:06:13;0.43;;;0.30;;
84133;SDS011;74235;48.688;9.708;2024-02-23T02:08:43;0.52;;;0.52;;
84133;SDS011;74235;48.688;9.708;2024-02-23T02:11:11;0.32;;;0.32;;
84133;SDS011;74235;48.688;9.708;2024-02-23T02:16:06;0.28;;;0.28;;
84133;SDS011;74235;48.688;9.708;2024-02-23T02:18:34;0.57;;;0.30;;
84133;SDS011;74235;48.688;9.708;2024-02-23T02:21:02;0.17;;;0.17;;
84133;SDS011;74235;48.688;9.708;2024-02-23T02:23:29;0.35;;;0.35;;
84133;SDS011;74235;48.688;9.708;2024-02-23T02:25:59;0.40;;;0.40;;
84133;SDS011;74235;48.688;9.708;2024-02-23T02:28:26;0.38;;;0.38;;
84133;SDS011;74235;48.688;9.708;2024-02-23T02:30:54;0.35;;;0.35;;
84133;SDS011;74235;48.688;9.708;2024-02-23T02:33:22;0.20;;;0.20;;
84133;SDS011;74235;48.688;9.708;2024-02-23T02:35:50;0.55;;;0.55;;
84133;SDS011;74235;48.688;9.708;2024-02-23T02:38:17;0.30;;;0.30;;
84133;SDS011;74235;48.688;9.708;2024-02-23T02:40:45;0.20;;;0.20;;
84133;SDS011;74235;48.688;9.708;2024-02-23T02:43:14;0.30;;;0.30;;
84133;SDS011;74235;48.688;9.708;2024-02-23T02:45:42;0.40;;;0.40;;
84133;SDS011;74235;48.688;9.708;2024-02-23T02:48:11;0.40;;;0.40;;
84133;SDS011;74235;48.688;9.708;2024-02-23T02:50:39;0.17;;;0.17;;
84133;SDS011;74235;48.688;9.708;2024-02-23T02:53:07;0.40;;;0.40;;
84133;SDS011;74235;48.688;9.708;2024-02-23T02:55:35;0.50;;;0.50;;
84133;SDS011;74235;48.688;9.708;2024-02-23T02:58:03;0.30;;;0.30;;
84133;SDS011;74235;48.688;9.708;2024-02-23T03:00:32;0.32;;;0.32;;
84133;SDS011;74235;48.688;9.708;2024-02-23T03:02:59;0.63;;;0.63;;
84133;SDS011;74235;48.688;9.708;2024-02-23T03:07:54;0.35;;;0.35;;
84133;SDS011;74235;48.688;9.708;2024-02-23T03:12:49;0.30;;;0.30;;
84133;SDS011;74235;48.688;9.708;2024-02-23T03:17:46;0.55;;;0.38;;
84133;SDS011;74235;48.688;9.708;2024-02-23T03:20:15;0.40;;;0.40;;
84133;SDS011;74235;48.688;9.708;2024-02-23T03:22:43;0.35;;;0.35;;
84133;SDS011;74235;48.688;9.708;2024-02-23T03:25:11;0.40;;;0.40;;
84133;SDS011;74235;48.688;9.708;2024-02-23T03:27:38;0.20;;;0.20;;
84133;SDS011;74235;48.688;9.708;2024-02-23T03:30:06;0.30;;;0.30;;
84133;SDS011;74235;48.688;9.708;2024-02-23T03:32:37;0.30;;;0.30;;
84133;SDS011;74235;48.688;9.708;2024-02-23T03:35:08;0.30;;;0.30;;
84133;SDS011;74235;48.688;9.708;2024-02-23T03:37:36;0.45;;;0.45;;
84133;SDS011;74235;48.688;9.708;2024-02-23T03:40:05;0.13;;;0.13;;
84133;SDS011;74235;48.688;9.708;2024-02-23T03:42:33;0.28;;;0.28;;
84133;SDS011;74235;48.688;9.708;2024-02-23T03:45:02;0.30;;;0.30;;
84133;SDS011;74235;48.688;9.708;2024-02-23T03:47:30;0.32;;;0.32;;
84133;SDS011;74235;48.688;9.708;2024-02-23T03:49:58;0.38;;;0.38;;
84133;SDS011;74235;48.688;9.708;2024-02-23T03:52:27;0.30;;;0.30;;
84133;SDS011;74235;48.688;9.708;2024-02-23T03:54:54;0.50;;;0.50;;
84133;SDS011;74235;48.688;9.708;2024-02-23T03:57:22;1.00;;;0.50;;
84133;SDS011;74235;48.688;9.708;2024-02-23T03:59:53;0.30;;;0.30;;
84133;SDS011;74235;48.688;9.708;2024-02-23T04:02:21;0.30;;;0.30;;
84133;SDS011;74235;48.688;9.708;2024-02-23T04:04:49;0.20;;;0.20;;
84133;SDS011;74235;48.688;9.708;2024-02-23T04:07:17;0.30;;;0.30;;
84133;SDS011;74235;48.688;9.708;2024-02-23T04:09:46;0.40;;;0.40;;
84133;SDS011;74235;48.688;9.708;2024-02-23T04:12:19;0.40;;;0.40;;
84133;SDS011;74235;48.688;9.708;2024-02-23T04:14:47;0.90;;;0.60;;
84133;SDS011;74235;48.688;9.708;2024-02-23T04:17:15;0.40;;;0.40;;
84133;SDS011;74235;48.688;9.708;2024-02-23T04:19:44;0.30;;;0.30;;
84133;SDS011;74235;48.688;9.708;2024-02-23T04:22:11;0.30;;;0.30;;
84133;SDS011;74235;48.688;9.708;2024-02-23T04:24:39;0.30;;;0.30;;
84133;SDS011;74235;48.688;9.708;2024-02-23T04:27:09;0.30;;;0.30;;
84133;SDS011;74235;48.688;9.708;2024-02-23T04:29:36;0.30;;;0.30;;
84133;SDS011;74235;48.688;9.708;2024-02-23T04:32:05;0.30;;;0.30;;
84133;SDS011;74235;48.688;9.708;2024-02-23T04:34:33;0.45;;;0.30;;
84133;SDS011;74235;48.688;9.708;2024-02-23T04:37:01;0.30;;;0.30;;
84133;SDS011;74235;48.688;9.708;2024-02-23T04:41:56;0.17;;;0.17;;
84133;SDS011;74235;48.688;9.708;2024-02-23T04:44:26;0.32;;;0.32;;
84133;SDS011;74235;48.688;9.708;2024-02-23T04:46:54;0.25;;;0.25;;
84133;SDS011;74235;48.688;9.708;2024-02-23T04:49:22;0.20;;;0.20;;
84133;SDS011;74235;48.688;9.708;2024-02-23T04:54:17;0.20;;;0.20;;
84133;SDS011;74235;48.688;9.708;2024-02-23T04:59:12;0.50;;;0.50;;
84133;SDS011;74235;48.688;9.708;2024-02-23T05:01:41;0.30;;;0.30;;
84133;SDS011;74235;48.688;9.708;2024-02-23T05:04:10;0.28;;;0.28;;
84133;SDS011;74235;48.688;9.708;2024-02-23T05:06:37;0.50;;;0.50;;
84133;SDS011;74235;48.688;9.708;2024-02-23T05:09:05;0.35;;;0.35;;
84133;SDS011;74235;48.688;9.708;2024-02-23T05:11:36;0.30;;;0.30;;
84133;SDS011;74235;48.688;9.708;2024-02-23T05:14:04;0.32;;;0.32;;
84133;SDS011;74235;48.688;9.708;2024-02-23T05:16:32;0.35;;;0.35;;
84133;SDS011;74235;48.688;9.708;2024-02-23T05:21:28;0.38;;;0.38;;
84133;SDS011;74235;48.688;9.708;2024-02-23T05:23:56;0.80;;;0.68;;
84133;SDS011;74235;48.688;9.708;2024-02-23T05:28:51;0.40;;;0.40;;
84133;SDS011;74235;48.688;9.708;2024-02-23T05:31:19;0.40;;;0.40;;
84133;SDS011;74235;48.688;9.708;2024-02-23T05:33:47;0.22;;;0.22;;
84133;SDS011;74235;48.688;9.708;2024-02-23T05:36:17;0.40;;;0.40;;
84133;SDS011;74235;48.688;9.708;2024-02-23T05:38:45;0.28;;;0.28;;
84133;SDS011;74235;48.688;9.708;2024-02-23T05:41:13;0.28;;;0.28;;
84133;SDS011;74235;48.688;9.708;2024-02-23T05:43:41;0.47;;;0.47;;
84133;SDS011;74235;48.688;9.708;2024-02-23T05:46:08;0.47;;;0.47;;
84133;SDS011;74235;48.688;9.708;2024-02-23T05:51:04;0.40;;;0.40;;
84133;SDS011;74235;48.688;9.708;2024-02-23T05:53:33;0.20;;;0.20;;
84133;SDS011;74235;48.688;9.708;2024-02-23T05:56:02;0.30;;;0.30;;
84133;SDS011;74235;48.688;9.708;2024-02-23T05:58:31;0.30;;;0.30;;
84133;SDS011;74235;48.688;9.708;2024-02-23T06:00:58;0.30;;;0.30;;
84133;SDS011;74235;48.688;9.708;2024-02-23T06:03:26;0.20;;;0.20;;
84133;SDS011;74235;48.688;9.708;2024-02-23T06:05:54;0.20;;;0.20;;
84133;SDS011;74235;48.688;9.708;2024-02-23T06:08:22;0.40;;;0.40;;
84133;SDS011;74235;48.688;9.708;2024-02-23T06:10:51;0.70;;;0.70;;
84133;SDS011;74235;48.688;9.708;2024-02-23T06:13:19;0.68;;;0.68;;
84133;SDS011;74235;48.688;9.708;2024-02-23T06:18:14;0.80;;;0.80;;
84133;SDS011;74235;48.688;9.708;2024-02-23T06:20:41;0.60;;;0.60;;
84133;SDS011;74235;48.688;9.708;2024-02-23T06:23:09;0.50;;;0.50;;
84133;SDS011;74235;48.688;9.708;2024-02-23T06:25:37;0.73;;;0.38;;
84133;SDS011;74235;48.688;9.708;2024-02-23T06:28:06;1.00;;;0.80;;
84133;SDS011;74235;48.688;9.708;2024-02-23T06:30:34;0.70;;;0.70;;
84133;SDS011;74235;48.688;9.708;2024-02-23T06:33:01;0.50;;;0.50;;
84133;SDS011;74235;48.688;9.708;2024-02-23T06:35:29;0.63;;;0.63;;
84133;SDS011;74235;48.688;9.708;2024-02-23T06:37:57;1.75;;;1.05;;
84133;SDS011;74235;48.688;9.708;2024-02-23T06:40:25;0.50;;;0.50;;
84133;SDS011;74235;48.688;9.708;2024-02-23T06:43:08;0.63;;;0.63;;
84133;SDS011;74235;48.688;9.708;2024-02-23T06:45:36;0.52;;;0.52;;
84133;SDS011;74235;48.688;9.708;2024-02-23T06:50:31;0.43;;;0.43;;
84133;SDS011;74235;48.688;9.708;2024-02-23T06:52:59;0.68;;;0.68;;
84133;SDS011;74235;48.688;9.708;2024-02-23T06:55:27;0.50;;;0.50;;
84133;SDS011;74235;48.688;9.708;2024-02-23T06:57:54;0.65;;;0.65;;
84133;SDS011;74235;48.688;9.708;2024-02-23T07:00:23;0.60;;;0.60;;
84133;SDS011;74235;48.688;9.708;2024-02-23T07:02:51;0.65;;;0.65;;
84133;SDS011;74235;48.688;9.708;2024-02-23T07:05:19;0.75;;;0.75;;
84133;SDS011;74235;48.688;9.708;2024-02-23T07:07:46;0.47;;;0.47;;
84133;SDS011;74235;48.688;9.708;2024-02-23T07:12:41;0.60;;;0.60;;
84133;SDS011;74235;48.688;9.708;2024-02-23T07:15:11;0.57;;;0.57;;
84133;SDS011;74235;48.688;9.708;2024-02-23T07:20:08;0.60;;;0.60;;
84133;SDS011;74235;48.688;9.708;2024-02-23T07:22:36;0.68;;;0.68;;
84133;SDS011;74235;48.688;9.708;2024-02-23T07:25:04;0.60;;;0.60;;
84133;SDS011;74235;48.688;9.708;2024-02-23T07:27:32;0.63;;;0.63;;
84133;SDS011;74235;48.688;9.708;2024-02-23T07:30:00;0.43;;;0.43;;
84133;SDS011;74235;48.688;9.708;2024-02-23T07:32:28;0.40;;;0.40;;
84133;SDS011;74235;48.688;9.708;2024-02-23T07:34:59;0.70;;;0.70;;
84133;SDS011;74235;48.688;9.708;2024-02-23T07:37:26;0.60;;;0.60;;
84133;SDS011;74235;48.688;9.708;2024-02-23T07:39:54;0.70;;;0.70;;
84133;SDS011;74235;48.688;9.708;2024-02-23T07:42:25;0.60;;;0.60;;
84133;SDS011;74235;48.688;9.708;2024-02-23T07:44:53;0.65;;;0.65;;
84133;SDS011;74235;48.688;9.708;2024-02-23T07:49:48;0.45;;;0.45;;
84133;SDS011;74235;48.688;9.708;2024-02-23T07:52:17;0.80;;;0.80;;
84133;SDS011;74235;48.688;9.708;2024-02-23T07:54:47;0.57;;;0.57;;
84133;SDS011;74235;48.688;9.708;2024-02-23T07:57:15;0.55;;;0.55;;
84133;SDS011;74235;48.688;9.708;2024-02-23T07:59:44;0.82;;;0.82;;
84133;SDS011;74235;48.688;9.708;2024-02-23T08:02:11;0.70;;;0.70;;
84133;SDS011;74235;48.688;9.708;2024-02-23T08:04:39;1.45;;;0.70;;
84133;SDS011;74235;48.688;9.708;2024-02-23T08:07:10;0.85;;;0.85;;
84133;SDS011;74235;48.688;9.708;2024-02-23T08:09:40;0.57;;;0.57;;
84133;SDS011;74235;48.688;9.708;2024-02-23T08:12:08;1.10;;;0.95;;
84133;SDS011;74235;48.688;9.708;2024-02-23T08:14:36;0.65;;;0.65;;
84133;SDS011;74235;48.688;9.708;2024-02-23T08:17:04;1.50;;;1.10;;
84133;SDS011;74235;48.688;9.708;2024-02-23T08:19:32;1.38;;;1.00;;
84133;SDS011;74235;48.688;9.708;2024-02-23T08:22:00;1.10;;;0.98;;
84133;SDS011;74235;48.688;9.708;2024-02-23T08:26:56;1.17;;;0.95;;
84133;SDS011;74235;48.688;9.708;2024-02-23T08:29:25;1.10;;;1.00;;
84133;SDS011;74235;48.688;9.708;2024-02-23T08:31:53;0.88;;;0.88;;
84133;SDS011;74235;48.688;9.708;2024-02-23T08:34:22;0.73;;;0.73;;
84133;SDS011;74235;48.688;9.708;2024-02-23T08:36:50;1.23;;;1.10;;
84133;SDS011;74235;48.688;9.708;2024-02-23T08:39:18;0.70;;;0.70;;
84133;SDS011;74235;48.688;9.708;2024-02-23T08:44:14;0.77;;;0.77;;
84133;SDS011;74235;48.688;9.708;2024-02-23T08:46:42;1.52;;;1.05;;
84133;SDS011;74235;48.688;9.708;2024-02-23T08:51:37;0.40;;;0.40;;
84133;SDS011;74235;48.688;9.708;2024-02-23T08:56:36;0.77;;;0.77;;
84133;SDS011;74235;48.688;9.708;2024-02-23T08:59:05;1.33;;;0.60;;
84133;SDS011;74235;48.688;9.708;2024-02-23T09:04:02;0.70;;;0.70;;
84133;SDS011;74235;48.688;9.708;2024-02-23T09:06:29;0.77;;;0.77;;
84133;SDS011;74235;48.688;9.708;2024-02-23T09:09:02;0.73;;;0.73;;
84133;SDS011;74235;48.688;9.708;2024-02-23T09:11:31;0.50;;;0.50;;
84133;SDS011;74235;48.688;9.708;2024-02-23T09:13:59;0.65;;;0.65;;
84133;SDS011;74235;48.688;9.708;2024-02-23T09:16:27;0.60;;;0.60;;
84133;SDS011;74235;48.688;9.708;2024-02-23T09:21:24;0.60;;;0.60;;
84133;SDS011;74235;48.688;9.708;2024-02-23T09:26:19;1.23;;;1.13;;
84133;SDS011;74235;48.688;9.708;2024-02-23T09:28:46;0.57;;;0.57;;
84133;SDS011;74235;48.688;9.708;2024-02-23T09:33:42;0.90;;;0.90;;
84133;SDS011;74235;48.688;9.708;2024-02-23T09:36:12;0.90;;;0.90;;
84133;SDS011;74235;48.688;9.708;2024-02-23T09:38:40;0.80;;;0.80;;
84133;SDS011;74235;48.688;9.708;2024-02-23T09:41:08;0.80;;;0.80;;
84133;SDS011;74235;48.688;9.708;2024-02-23T09:43:44;0.95;;;0.95;;
84133;SDS011;74235;48.688;9.708;2024-02-23T09:46:12;1.00;;;1.00;;
84133;SDS011;74235;48.688;9.708;2024-02-23T09:48:41;0.80;;;0.80;;
84133;SDS011;74235;48.688;9.708;2024-02-23T09:51:10;0.70;;;0.70;;
84133;SDS011;74235;48.688;9.708;2024-02-23T09:53:40;0.63;;;0.63;;
84133;SDS011;74235;48.688;9.708;2024-02-23T09:56:09;0.73;;;0.73;;
84133;SDS011;74235;48.688;9.708;2024-02-23T09:58:37;0.70;;;0.70;;
84133;SDS011;74235;48.688;9.708;2024-02-23T10:01:08;0.70;;;0.70;;
84133;SDS011;74235;48.688;9.708;2024-02-23T10:03:39;1.00;;;0.70;;
84133;SDS011;74235;48.688;9.708;2024-02-23T10:06:07;0.40;;;0.40;;
84133;SDS011;74235;48.688;9.708;2024-02-23T10:08:36;0.70;;;0.70;;
84133;SDS011;74235;48.688;9.708;2024-02-23T10:11:04;0.95;;;0.80;;
84133;SDS011;74235;48.688;9.708;2024-02-23T10:13:34;0.65;;;0.65;;
84133;SDS011;74235;48.688;9.708;2024-02-23T10:16:02;0.63;;;0.60;;
84133;SDS011;74235;48.688;9.708;2024-02-23T10:18:41;0.75;;;0.75;;
84133;SDS011;74235;48.688;9.708;2024-02-23T10:21:09;0.80;;;0.80;;
84133;SDS011;74235;48.688;9.708;2024-02-23T10:23:38;0.70;;;0.70;;
84133;SDS011;74235;48.688;9.708;2024-02-23T10:26:06;0.75;;;0.75;;
84133;SDS011;74235;48.688;9.708;2024-02-23T10:28:35;0.47;;;0.47;;
84133;SDS011;74235;48.688;9.708;2024-02-23T10:31:06;0.38;;;0.38;;
84133;SDS011;74235;48.688;9.708;2024-02-23T10:33:38;0.70;;;0.70;;
84133;SDS011;74235;48.688;9.708;2024-02-23T10:36:07;1.67;;;0.73;;
84133;SDS011;74235;48.688;9.708;2024-02-23T10:38:39;3.00;;;1.00;;
84133;SDS011;74235;48.688;9.708;2024-02-23T10:41:11;2.42;;;0.73;;
84133;SDS011;74235;48.688;9.708;2024-02-23T10:43:41;3.10;;;0.60;;
84133;SDS011;74235;48.688;9.708;2024-02-23T10:46:13;2.13;;;0.70;;
84133;SDS011;74235;48.688;9.708;2024-02-23T10:48:43;3.20;;;1.20;;
84133;SDS011;74235;48.688;9.708;2024-02-23T10:51:13;1.73;;;0.82;;
84133;SDS011;74235;48.688;9.708;2024-02-23T10:53:48;1.40;;;0.80;;
84133;SDS011;74235;48.688;9.708;2024-02-23T10:56:17;3.40;;;1.10;;
84133;SDS011;74235;48.688;9.708;2024-02-23T10:58:45;3.72;;;1.15;;
84133;SDS011;74235;48.688;9.708;2024-02-23T11:01:13;3.40;;;1.08;;
84133;SDS011;74235;48.688;9.708;2024-02-23T11:03:42;2.50;;;1.42;;
84133;SDS011;74235;48.688;9.708;2024-02-23T11:06:15;2.42;;;0.90;;
84133;SDS011;74235;48.688;9.708;2024-02-23T11:08:50;1.40;;;1.05;;
84133;SDS011;74235;48.688;9.708;2024-02-23T11:11:18;3.00;;;1.00;;
84133;SDS011;74235;48.688;9.708;2024-02-23T11:13:46;1.65;;;0.95;;
84133;SDS011;74235;48.688;9.708;2024-02-23T11:16:21;3.38;;;1.40;;
84133;SDS011;74235;48.688;9.708;2024-02-23T11:18:50;1.55;;;1.00;;
84133;SDS011;74235;48.688;9.708;2024-02-23T11:21:34;1.13;;;0.82;;
84133;SDS011;74235;48.688;9.708;2024-02-23T11:24:06;1.65;;;1.05;;
84133;SDS011;74235;48.688;9.708;2024-02-23T11:26:36;1.17;;;1.08;;
84133;SDS011;74235;48.688;9.708;2024-02-23T11:29:09;1.60;;;0.68;;
84133;SDS011;74235;48.688;9.708;2024-02-23T11:31:43;0.85;;;0.80;;
84133;SDS011;74235;48.688;9.708;2024-02-23T11:34:12;1.45;;;0.55;;
84133;SDS011;74235;48.688;9.708;2024-02-23T11:36:40;0.60;;;0.52;;
84133;SDS011;74235;48.688;9.708;2024-02-23T11:39:10;1.00;;;0.90;;
84133;SDS011;74235;48.688;9.708;2024-02-23T11:41:40;1.08;;;0.98;;
84133;SDS011;74235;48.688;9.708;2024-02-23T11:44:08;2.83;;;1.67;;
84133;SDS011;74235;48.688;9.708;2024-02-23T11:46:36;3.35;;;2.17;;
84133;SDS011;74235;48.688;9.708;2024-02-23T11:49:04;3.17;;;2.22;;
84133;SDS011;74235;48.688;9.708;2024-02-23T11:51:32;4.72;;;2.80;;
84133;SDS011;74235;48.688;9.708;2024-02-23T11:54:00;5.15;;;3.70;;
84133;SDS011;74235;48.688;9.708;2024-02-23T11:56:30;5.97;;;3.67;;
84133;SDS011;74235;48.688;9.708;2024-02-23T11:58:58;8.02;;;4.43;;
84133;SDS011;74235;48.688;9.708;2024-02-23T12:01:28;7.32;;;4.88;;
84133;SDS011;74235;48.688;9.708;2024-02-23T12:03:56;8.13;;;5.22;;
84133;SDS011;74235;48.688;9.708;2024-02-23T12:08:54;8.38;;;4.97;;
84133;SDS011;74235;48.688;9.708;2024-02-23T12:11:22;8.88;;;4.30;;
84133;SDS011;74235;48.688;9.708;2024-02-23T12:13:51;7.57;;;4.13;;
84133;SDS011;74235;48.688;9.708;2024-02-23T12:16:20;5.57;;;4.03;;
84133;SDS011;74235;48.688;9.708;2024-02-23T12:18:52;5.60;;;3.67;;
84133;SDS011;74235;48.688;9.708;2024-02-23T12:21:21;5.72;;;3.70;;
84133;SDS011;74235;48.688;9.708;2024-02-23T12:23:49;5.90;;;4.10;;
84133;SDS011;74235;48.688;9.708;2024-02-23T12:26:17;7.03;;;4.07;;
84133;SDS011;74235;48.688;9.708;2024-02-23T12:28:46;6.53;;;3.38;;
84133;SDS011;74235;48.688;9.708;2024-02-23T12:31:15;6.20;;;3.30;;
84133;SDS011;74235;48.688;9.708;2024-02-23T12:33:50;5.05;;;3.10;;
84133;SDS011;74235;48.688;9.708;2024-02-23T12:36:18;5.20;;;3.50;;
84133;SDS011;74235;48.688;9.708;2024-02-23T12:41:13;4.00;;;2.35;;
84133;SDS011;74235;48.688;9.708;2024-02-23T12:46:11;4.10;;;2.70;;
84133;SDS011;74235;48.688;9.708;2024-02-23T12:48:42;5.13;;;2.65;;
84133;SDS011;74235;48.688;9.708;2024-02-23T12:51:10;3.67;;;2.55;;
84133;SDS011;74235;48.688;9.708;2024-02-23T12:53:40;3.58;;;2.40;;
84133;SDS011;74235;48.688;9.708;2024-02-23T12:56:09;3.45;;;2.30;;
84133;SDS011;74235;48.688;9.708;2024-02-23T12:58:39;4.03;;;2.30;;
84133;SDS011;74235;48.688;9.708;2024-02-23T13:01:08;4.93;;;2.08;;
84133;SDS011;74235;48.688;9.708;2024-02-23T13:03:37;3.33;;;1.85;;
84133;SDS011;74235;48.688;9.708;2024-02-23T13:06:07;5.20;;;2.05;;
84133;SDS011;74235;48.688;9.708;2024-02-23T13:08:35;4.35;;;2.35;;
84133;SDS011;74235;48.688;9.708;2024-02-23T13:11:03;3.53;;;1.50;;
84133;SDS011;74235;48.688;9.708;2024-02-23T13:13:31;3.75;;;1.60;;
84133;SDS011;74235;48.688;9.708;2024-02-23T13:15:59;4.82;;;2.25;;
84133;SDS011;74235;48.688;9.708;2024-02-23T13:18:27;3.03;;;1.58;;
84133;SDS011;74235;48.688;9.708;2024-02-23T13:20:54;2.40;;;1.75;;
84133;SDS011;74235;48.688;9.708;2024-02-23T13:23:24;3.42;;;2.08;;
84133;SDS011;74235;48.688;9.708;2024-02-23T13:25:52;3.78;;;1.55;;
84133;SDS011;74235;48.688;9.708;2024-02-23T13:28:19;2.55;;;1.13;;
84133;SDS011;74235;48.688;9.708;2024-02-23T13:30:47;2.67;;;1.60;;
84133;SDS011;74235;48.688;9.708;2024-02-23T13:33:15;2.40;;;1.40;;
84133;SDS011;74235;48.688;9.708;2024-02-23T13:35:43;3.83;;;1.45;;
84133;SDS011;74235;48.688;9.708;2024-02-23T13:38:11;1.77;;;1.17;;
84133;SDS011;74235;48.688;9.708;2024-02-23T13:40:40;1.38;;;1.00;;
84133;SDS011;74235;48.688;9.708;2024-02-23T13:43:08;3.92;;;1.25;;
84133;SDS011;74235;48.688;9.708;2024-02-23T13:45:47;6.13;;;1.20;;
84133;SDS011;74235;48.688;9.708;2024-02-23T13:48:16;1.10;;;1.00;;
84133;SDS011;74235;48.688;9.708;2024-02-23T13:50:51;1.63;;;1.23;;
84133;SDS011;74235;48.688;9.708;2024-02-23T13:53:19;1.50;;;0.93;;
84133;SDS011;74235;48.688;9.708;2024-02-23T13:55:48;1.80;;;1.10;;
84133;SDS011;74235;48.688;9.708;2024-02-23T13:58:17;1.48;;;1.10;;
84133;SDS011;74235;48.688;9.708;2024-02-23T14:00:46;1.20;;;0.93;;
84133;SDS011;74235;48.688;9.708;2024-02-23T14:03:15;3.38;;;1.30;;
84133;SDS011;74235;48.688;9.708;2024-02-23T14:05:49;0.82;;;0.82;;
84133;SDS011;74235;48.688;9.708;2024-02-23T14:08:17;2.63;;;1.05;;
84133;SDS011;74235;48.688;9.708;2024-02-23T14:10:44;1.88;;;0.77;;
84133;SDS011;74235;48.688;9.708;2024-02-23T14:13:14;2.50;;;1.10;;
84133;SDS011;74235;48.688;9.708;2024-02-23T14:15:42;3.38;;;0.98;;
84133;SDS011;74235;48.688;9.708;2024-02-23T14:18:10;1.38;;;0.80;;
84133;SDS011;74235;48.688;9.708;2024-02-23T14:20:38;1.13;;;0.93;;
84133;SDS011;74235;48.688;9.708;2024-02-23T14:23:07;1.33;;;0.80;;
84133;SDS011;74235;48.688;9.708;2024-02-23T14:25:35;1.80;;;1.10;;
84133;SDS011;74235;48.688;9.708;2024-02-23T14:28:03;3.13;;;1.10;;
84133;SDS011;74235;48.688;9.708;2024-02-23T14:30:32;0.50;;;0.50;;
84133;SDS011;74235;48.688;9.708;2024-02-23T14:33:00;1.20;;;0.80;;
84133;SDS011;74235;48.688;9.708;2024-02-23T14:35:28;2.42;;;1.15;;
84133;SDS011;74235;48.688;9.708;2024-02-23T14:37:56;0.80;;;0.80;;
84133;SDS011;74235;48.688;9.708;2024-02-23T14:40:24;1.27;;;0.80;;
84133;SDS011;74235;48.688;9.708;2024-02-23T14:42:51;1.10;;;1.00;;
84133;SDS011;74235;48.688;9.708;2024-02-23T14:45:19;0.82;;;0.75;;
84133;SDS011;74235;48.688;9.708;2024-02-23T14:47:50;1.23;;;1.00;;
84133;SDS011;74235;48.688;9.708;2024-02-23T14:50:18;1.55;;;1.10;;
84133;SDS011;74235;48.688;9.708;2024-02-23T14:52:46;1.05;;;0.85;;
84133;SDS011;74235;48.688;9.708;2024-02-23T14:55:14;1.00;;;0.90;;
84133;SDS011;74235;48.688;9.708;2024-02-23T14:57:42;1.58;;;1.10;;
84133;SDS011;74235;48.688;9.708;2024-02-23T15:00:10;0.70;;;0.70;;
84133;SDS011;74235;48.688;9.708;2024-02-23T15:02:39;1.10;;;0.85;;
84133;SDS011;74235;48.688;9.708;2024-02-23T15:05:09;1.02;;;0.93;;
84133;SDS011;74235;48.688;9.708;2024-02-23T15:07:37;0.90;;;0.80;;
84133;SDS011;74235;48.688;9.708;2024-02-23T15:10:05;1.30;;;1.10;;
84133;SDS011;74235;48.688;9.708;2024-02-23T15:12:37;1.40;;;0.98;;
84133;SDS011;74235;48.688;9.708;2024-02-23T15:15:05;2.47;;;0.90;;
84133;SDS011;74235;48.688;9.708;2024-02-23T15:17:34;0.80;;;0.80;;
84133;SDS011;74235;48.688;9.708;2024-02-23T15:20:02;1.77;;;0.88;;
84133;SDS011;74235;48.688;9.708;2024-02-23T15:22:32;0.90;;;0.75;;
84133;SDS011;74235;48.688;9.708;2024-02-23T15:24:59;0.70;;;0.70;;
84133;SDS011;74235;48.688;9.708;2024-02-23T15:27:27;1.10;;;1.00;;
84133;SDS011;74235;48.688;9.708;2024-02-23T15:29:55;1.13;;;0.60;;
84133;SDS011;74235;48.688;9.708;2024-02-23T15:34:52;1.48;;;0.82;;
84133;SDS011;74235;48.688;9.708;2024-02-23T15:37:20;0.70;;;0.70;;
84133;SDS011;74235;48.688;9.708;2024-02-23T15:39:49;0.95;;;0.90;;
84133;SDS011;74235;48.688;9.708;2024-02-23T15:42:16;3.08;;;1.58;;
84133;SDS011;74235;48.688;9.708;2024-02-23T15:44:47;5.28;;;1.40;;
84133;SDS011;74235;48.688;9.708;2024-02-23T15:47:15;9.13;;;1.70;;
84133;SDS011;74235;48.688;9.708;2024-02-23T15:49:43;13.15;;;2.20;;
84133;SDS011;74235;48.688;9.708;2024-02-23T15:52:31;5.32;;;1.50;;
84133;SDS011;74235;48.688;9.708;2024-02-23T15:55:00;8.70;;;1.88;;
84133;SDS011;74235;48.688;9.708;2024-02-23T15:57:28;6.40;;;1.30;;
84133;SDS011;74235;48.688;9.708;2024-02-23T15:59:56;4.10;;;1.45;;
84133;SDS011;74235;48.688;9.708;2024-02-23T16:02:31;3.35;;;1.40;;
84133;SDS011;74235;48.688;9.708;2024-02-23T16:04:58;3.03;;;1.67;;
84133;SDS011;74235;48.688;9.708;2024-02-23T16:07:26;2.00;;;1.13;;
84133;SDS011;74235;48.688;9.708;2024-02-23T16:09:54;2.42;;;1.17;;
84133;SDS011;74235;48.688;9.708;2024-02-23T16:12:23;8.82;;;1.30;;
84133;SDS011;74235;48.688;9.708;2024-02-23T16:14:51;2.42;;;1.08;;
84133;SDS011;74235;48.688;9.708;2024-02-23T16:17:19;4.15;;;1.08;;
84133;SDS011;74235;48.688;9.708;2024-02-23T16:19:47;2.33;;;0.93;;
84133;SDS011;74235;48.688;9.708;2024-02-23T16:22:15;4.43;;;1.35;;
84133;SDS011;74235;48.688;9.708;2024-02-23T16:24:42;3.42;;;1.30;;